sensor_id;sensor_type;location;lat;lon;timestamp;P1;durP1;ratioP1;P2;durP2;ratioP2
75851;SDS011;64500;52.632;20.656;2023-04-30T00:01:09;17.90;;;12.70;;
75851;SDS011;64500;52.632;20.656;2023-04-30T00:03:36;20.00;;;12.90;;
75851;SDS011;64500;52.632;20.656;2023-04-30T00:06:03;20.80;;;12.90;;
75851;SDS011;64500;52.632;20.656;2023-04-30T00:08:30;22.50;;;13.40;;
75851;SDS011;64500;52.632;20.656;2023-04-30T00:10:56;20.40;;;13.10;;
75851;SDS011;64500;52.632;20.656;2023-04-30T00:13:23;20.00;;;13.10;;
75851;SDS011;64500;52.632;20.656;2023-04-30T00:15:50;20.70;;;13.70;;
75851;SDS011;64500;52.632;20.656;2023-04-30T00:18:17;21.00;;;14.10;;
75851;SDS011;64500;52.632;20.656;2023-04-30T00:20:44;19.30;;;13.50;;
75851;SDS011;64500;52.632;20.656;2023-04-30T00:23:11;22.90;;;14.10;;
75851;SDS011;64500;52.632;20.656;2023-04-30T00:25:38;21.60;;;14.50;;
75851;SDS011;64500;52.632;20.656;2023-04-30T00:28:04;20.30;;;14.30;;
75851;SDS011;64500;52.632;20.656;2023-04-30T00:30:31;18.50;;;12.50;;
75851;SDS011;64500;52.632;20.656;2023-04-30T00:32:58;22.40;;;13.60;;
75851;SDS011;64500;52.632;20.656;2023-04-30T00:35:25;19.50;;;13.80;;
75851;SDS011;64500;52.632;20.656;2023-04-30T00:37:52;19.00;;;12.90;;
75851;SDS011;64500;52.632;20.656;2023-04-30T00:40:19;20.30;;;13.20;;
75851;SDS011;64500;52.632;20.656;2023-04-30T00:42:46;21.00;;;14.30;;
75851;SDS011;64500;52.632;20.656;2023-04-30T00:45:14;20.50;;;13.80;;
75851;SDS011;64500;52.632;20.656;2023-04-30T00:47:43;17.80;;;12.30;;
75851;SDS011;64500;52.632;20.656;2023-04-30T00:50:10;19.90;;;13.30;;
75851;SDS011;64500;52.632;20.656;2023-04-30T00:52:38;17.70;;;12.00;;
75851;SDS011;64500;52.632;20.656;2023-04-30T00:55:05;17.80;;;11.90;;
75851;SDS011;64500;52.632;20.656;2023-04-30T00:57:32;19.10;;;12.10;;
75851;SDS011;64500;52.632;20.656;2023-04-30T01:00:00;17.30;;;11.80;;
75851;SDS011;64500;52.632;20.656;2023-04-30T01:02:27;19.70;;;13.90;;
75851;SDS011;64500;52.632;20.656;2023-04-30T01:04:54;19.20;;;14.00;;
75851;SDS011;64500;52.632;20.656;2023-04-30T01:07:22;23.60;;;15.20;;
75851;SDS011;64500;52.632;20.656;2023-04-30T01:09:49;18.10;;;13.70;;
75851;SDS011;64500;52.632;20.656;2023-04-30T01:15:07;22.00;;;16.40;;
75851;SDS011;64500;52.632;20.656;2023-04-30T01:17:38;21.20;;;15.10;;
75851;SDS011;64500;52.632;20.656;2023-04-30T01:20:07;23.10;;;16.40;;
75851;SDS011;64500;52.632;20.656;2023-04-30T01:22:38;22.90;;;17.10;;
75851;SDS011;64500;52.632;20.656;2023-04-30T01:25:23;24.80;;;17.40;;
75851;SDS011;64500;52.632;20.656;2023-04-30T01:30:18;21.00;;;14.40;;
75851;SDS011;64500;52.632;20.656;2023-04-30T01:32:45;19.90;;;14.50;;
75851;SDS011;64500;52.632;20.656;2023-04-30T01:35:12;25.90;;;16.80;;
75851;SDS011;64500;52.632;20.656;2023-04-30T01:43:11;20.60;;;14.60;;
75851;SDS011;64500;52.632;20.656;2023-04-30T01:53:08;19.60;;;14.40;;
75851;SDS011;64500;52.632;20.656;2023-04-30T01:55:36;21.30;;;15.90;;
75851;SDS011;64500;52.632;20.656;2023-04-30T01:58:08;24.20;;;16.70;;
75851;SDS011;64500;52.632;20.656;2023-04-30T02:00:35;20.70;;;13.80;;
75851;SDS011;64500;52.632;20.656;2023-04-30T02:03:02;20.70;;;15.40;;
75851;SDS011;64500;52.632;20.656;2023-04-30T02:05:29;23.70;;;18.70;;
75851;SDS011;64500;52.632;20.656;2023-04-30T02:07:56;25.80;;;17.90;;
75851;SDS011;64500;52.632;20.656;2023-04-30T02:10:24;22.90;;;16.70;;
75851;SDS011;64500;52.632;20.656;2023-04-30T02:12:52;23.20;;;17.00;;
75851;SDS011;64500;52.632;20.656;2023-04-30T02:15:19;23.80;;;16.00;;
75851;SDS011;64500;52.632;20.656;2023-04-30T02:17:46;25.30;;;17.10;;
75851;SDS011;64500;52.632;20.656;2023-04-30T02:20:12;35.80;;;22.80;;
75851;SDS011;64500;52.632;20.656;2023-04-30T02:22:39;20.20;;;14.30;;
75851;SDS011;64500;52.632;20.656;2023-04-30T02:25:06;30.20;;;17.90;;
75851;SDS011;64500;52.632;20.656;2023-04-30T02:27:33;20.50;;;14.00;;
75851;SDS011;64500;52.632;20.656;2023-04-30T02:30:00;21.90;;;15.90;;
75851;SDS011;64500;52.632;20.656;2023-04-30T02:32:28;30.00;;;20.30;;
75851;SDS011;64500;52.632;20.656;2023-04-30T02:34:55;29.70;;;18.60;;
75851;SDS011;64500;52.632;20.656;2023-04-30T02:37:22;27.50;;;17.10;;
75851;SDS011;64500;52.632;20.656;2023-04-30T02:39:49;39.70;;;27.50;;
75851;SDS011;64500;52.632;20.656;2023-04-30T02:42:16;23.80;;;16.70;;
75851;SDS011;64500;52.632;20.656;2023-04-30T02:44:43;25.90;;;17.60;;
75851;SDS011;64500;52.632;20.656;2023-04-30T02:47:10;25.20;;;18.10;;
75851;SDS011;64500;52.632;20.656;2023-04-30T02:49:38;25.00;;;15.80;;
75851;SDS011;64500;52.632;20.656;2023-04-30T02:52:05;25.00;;;18.20;;
75851;SDS011;64500;52.632;20.656;2023-04-30T02:54:35;25.10;;;17.30;;
75851;SDS011;64500;52.632;20.656;2023-04-30T02:57:02;26.00;;;17.10;;
75851;SDS011;64500;52.632;20.656;2023-04-30T02:59:29;23.80;;;16.30;;
75851;SDS011;64500;52.632;20.656;2023-04-30T03:01:56;24.30;;;16.20;;
75851;SDS011;64500;52.632;20.656;2023-04-30T03:04:23;24.40;;;15.60;;
75851;SDS011;64500;52.632;20.656;2023-04-30T03:06:49;23.30;;;15.50;;
75851;SDS011;64500;52.632;20.656;2023-04-30T03:09:16;24.10;;;16.40;;
75851;SDS011;64500;52.632;20.656;2023-04-30T03:11:43;23.70;;;16.50;;
75851;SDS011;64500;52.632;20.656;2023-04-30T03:14:10;26.30;;;14.90;;
75851;SDS011;64500;52.632;20.656;2023-04-30T03:16:37;23.00;;;14.50;;
75851;SDS011;64500;52.632;20.656;2023-04-30T03:19:04;27.30;;;17.10;;
75851;SDS011;64500;52.632;20.656;2023-04-30T03:21:30;43.00;;;26.70;;
75851;SDS011;64500;52.632;20.656;2023-04-30T03:23:58;23.90;;;16.40;;
75851;SDS011;64500;52.632;20.656;2023-04-30T03:26:24;24.40;;;16.80;;
75851;SDS011;64500;52.632;20.656;2023-04-30T03:28:51;23.70;;;16.00;;
75851;SDS011;64500;52.632;20.656;2023-04-30T03:31:20;23.20;;;16.30;;
75851;SDS011;64500;52.632;20.656;2023-04-30T03:33:47;23.80;;;16.30;;
75851;SDS011;64500;52.632;20.656;2023-04-30T03:36:14;21.00;;;14.70;;
75851;SDS011;64500;52.632;20.656;2023-04-30T03:38:41;23.60;;;15.00;;
75851;SDS011;64500;52.632;20.656;2023-04-30T03:41:08;24.90;;;15.80;;
75851;SDS011;64500;52.632;20.656;2023-04-30T03:43:35;21.90;;;14.80;;
75851;SDS011;64500;52.632;20.656;2023-04-30T03:46:03;23.40;;;14.60;;
75851;SDS011;64500;52.632;20.656;2023-04-30T03:48:30;23.70;;;15.20;;
75851;SDS011;64500;52.632;20.656;2023-04-30T03:50:58;25.60;;;14.90;;
75851;SDS011;64500;52.632;20.656;2023-04-30T03:53:25;18.90;;;13.20;;
75851;SDS011;64500;52.632;20.656;2023-04-30T03:55:52;23.10;;;13.80;;
75851;SDS011;64500;52.632;20.656;2023-04-30T03:58:20;21.50;;;14.30;;
75851;SDS011;64500;52.632;20.656;2023-04-30T04:00:47;20.20;;;13.50;;
75851;SDS011;64500;52.632;20.656;2023-04-30T04:03:14;22.80;;;14.60;;
75851;SDS011;64500;52.632;20.656;2023-04-30T04:05:41;19.10;;;13.70;;
75851;SDS011;64500;52.632;20.656;2023-04-30T04:08:08;21.10;;;13.20;;
75851;SDS011;64500;52.632;20.656;2023-04-30T04:10:35;17.70;;;12.30;;
75851;SDS011;64500;52.632;20.656;2023-04-30T04:13:02;23.30;;;13.70;;
75851;SDS011;64500;52.632;20.656;2023-04-30T04:15:29;22.40;;;14.30;;
75851;SDS011;64500;52.632;20.656;2023-04-30T04:17:56;20.30;;;13.90;;
75851;SDS011;64500;52.632;20.656;2023-04-30T04:20:22;21.20;;;13.30;;
75851;SDS011;64500;52.632;20.656;2023-04-30T04:22:49;23.70;;;14.90;;
75851;SDS011;64500;52.632;20.656;2023-04-30T04:25:16;21.10;;;14.90;;
75851;SDS011;64500;52.632;20.656;2023-04-30T04:27:43;21.80;;;15.40;;
75851;SDS011;64500;52.632;20.656;2023-04-30T04:30:11;23.80;;;16.20;;
75851;SDS011;64500;52.632;20.656;2023-04-30T04:32:39;21.80;;;15.60;;
75851;SDS011;64500;52.632;20.656;2023-04-30T04:35:15;23.80;;;15.50;;
75851;SDS011;64500;52.632;20.656;2023-04-30T04:37:42;25.00;;;15.60;;
75851;SDS011;64500;52.632;20.656;2023-04-30T04:40:09;20.00;;;14.60;;
75851;SDS011;64500;52.632;20.656;2023-04-30T04:42:39;22.80;;;15.30;;
75851;SDS011;64500;52.632;20.656;2023-04-30T04:45:06;23.90;;;15.00;;
75851;SDS011;64500;52.632;20.656;2023-04-30T04:47:33;21.90;;;13.30;;
75851;SDS011;64500;52.632;20.656;2023-04-30T04:50:00;21.80;;;14.60;;
75851;SDS011;64500;52.632;20.656;2023-04-30T04:52:30;24.30;;;13.70;;
75851;SDS011;64500;52.632;20.656;2023-04-30T04:54:57;19.90;;;13.30;;
75851;SDS011;64500;52.632;20.656;2023-04-30T04:57:24;18.50;;;13.70;;
75851;SDS011;64500;52.632;20.656;2023-04-30T04:59:51;21.30;;;12.60;;
75851;SDS011;64500;52.632;20.656;2023-04-30T05:02:18;25.00;;;13.30;;
75851;SDS011;64500;52.632;20.656;2023-04-30T05:04:45;19.50;;;12.90;;
75851;SDS011;64500;52.632;20.656;2023-04-30T05:07:13;19.20;;;12.10;;
75851;SDS011;64500;52.632;20.656;2023-04-30T05:09:39;18.20;;;10.70;;
75851;SDS011;64500;52.632;20.656;2023-04-30T05:12:06;16.00;;;10.30;;
75851;SDS011;64500;52.632;20.656;2023-04-30T05:14:33;14.90;;;8.60;;
75851;SDS011;64500;52.632;20.656;2023-04-30T05:16:59;17.10;;;9.20;;
75851;SDS011;64500;52.632;20.656;2023-04-30T05:19:26;15.40;;;8.50;;
75851;SDS011;64500;52.632;20.656;2023-04-30T05:21:53;12.20;;;6.90;;
75851;SDS011;64500;52.632;20.656;2023-04-30T05:24:20;12.70;;;7.00;;
75851;SDS011;64500;52.632;20.656;2023-04-30T05:26:47;13.30;;;6.30;;
75851;SDS011;64500;52.632;20.656;2023-04-30T05:29:13;13.40;;;6.00;;
75851;SDS011;64500;52.632;20.656;2023-04-30T05:31:40;12.10;;;5.00;;
75851;SDS011;64500;52.632;20.656;2023-04-30T05:34:08;12.20;;;5.90;;
75851;SDS011;64500;52.632;20.656;2023-04-30T05:36:35;15.10;;;6.80;;
75851;SDS011;64500;52.632;20.656;2023-04-30T05:39:02;13.60;;;6.30;;
75851;SDS011;64500;52.632;20.656;2023-04-30T05:41:30;11.50;;;6.20;;
75851;SDS011;64500;52.632;20.656;2023-04-30T05:43:56;14.00;;;5.70;;
75851;SDS011;64500;52.632;20.656;2023-04-30T05:46:23;13.70;;;5.80;;
75851;SDS011;64500;52.632;20.656;2023-04-30T05:48:50;11.20;;;6.20;;
75851;SDS011;64500;52.632;20.656;2023-04-30T05:51:17;11.30;;;5.90;;
75851;SDS011;64500;52.632;20.656;2023-04-30T05:53:44;10.90;;;6.00;;
75851;SDS011;64500;52.632;20.656;2023-04-30T05:56:11;10.60;;;5.80;;
75851;SDS011;64500;52.632;20.656;2023-04-30T05:58:38;10.90;;;5.40;;
75851;SDS011;64500;52.632;20.656;2023-04-30T06:01:05;14.30;;;6.00;;
75851;SDS011;64500;52.632;20.656;2023-04-30T06:03:32;12.50;;;6.00;;
75851;SDS011;64500;52.632;20.656;2023-04-30T06:05:59;12.60;;;6.70;;
75851;SDS011;64500;52.632;20.656;2023-04-30T06:08:26;14.00;;;6.70;;
75851;SDS011;64500;52.632;20.656;2023-04-30T06:10:53;11.40;;;6.10;;
75851;SDS011;64500;52.632;20.656;2023-04-30T06:13:20;13.90;;;6.30;;
75851;SDS011;64500;52.632;20.656;2023-04-30T06:15:47;10.40;;;5.70;;
75851;SDS011;64500;52.632;20.656;2023-04-30T06:18:14;13.30;;;5.60;;
75851;SDS011;64500;52.632;20.656;2023-04-30T06:20:41;10.00;;;4.50;;
75851;SDS011;64500;52.632;20.656;2023-04-30T06:23:08;12.90;;;4.50;;
75851;SDS011;64500;52.632;20.656;2023-04-30T06:25:35;11.10;;;4.00;;
75851;SDS011;64500;52.632;20.656;2023-04-30T06:28:02;9.40;;;3.70;;
75851;SDS011;64500;52.632;20.656;2023-04-30T06:30:30;9.40;;;3.20;;
75851;SDS011;64500;52.632;20.656;2023-04-30T06:32:57;11.00;;;3.50;;
75851;SDS011;64500;52.632;20.656;2023-04-30T06:35:24;10.10;;;3.40;;
75851;SDS011;64500;52.632;20.656;2023-04-30T06:37:51;9.50;;;3.30;;
75851;SDS011;64500;52.632;20.656;2023-04-30T06:40:17;12.70;;;4.20;;
75851;SDS011;64500;52.632;20.656;2023-04-30T06:42:45;9.40;;;3.70;;
75851;SDS011;64500;52.632;20.656;2023-04-30T06:45:12;12.30;;;4.50;;
75851;SDS011;64500;52.632;20.656;2023-04-30T06:47:40;9.60;;;4.20;;
75851;SDS011;64500;52.632;20.656;2023-04-30T06:50:08;9.60;;;4.00;;
75851;SDS011;64500;52.632;20.656;2023-04-30T06:52:35;9.10;;;3.80;;
75851;SDS011;64500;52.632;20.656;2023-04-30T06:55:02;10.20;;;3.80;;
75851;SDS011;64500;52.632;20.656;2023-04-30T06:57:29;9.50;;;3.40;;
75851;SDS011;64500;52.632;20.656;2023-04-30T06:59:56;9.40;;;3.50;;
75851;SDS011;64500;52.632;20.656;2023-04-30T07:02:23;9.30;;;3.30;;
75851;SDS011;64500;52.632;20.656;2023-04-30T07:04:50;10.40;;;3.40;;
75851;SDS011;64500;52.632;20.656;2023-04-30T07:07:17;6.60;;;2.80;;
75851;SDS011;64500;52.632;20.656;2023-04-30T07:09:44;9.30;;;3.70;;
75851;SDS011;64500;52.632;20.656;2023-04-30T07:12:11;11.20;;;4.50;;
75851;SDS011;64500;52.632;20.656;2023-04-30T07:14:39;12.60;;;4.20;;
75851;SDS011;64500;52.632;20.656;2023-04-30T07:17:05;11.30;;;4.80;;
75851;SDS011;64500;52.632;20.656;2023-04-30T07:19:32;10.20;;;4.60;;
75851;SDS011;64500;52.632;20.656;2023-04-30T07:21:59;10.60;;;4.30;;
75851;SDS011;64500;52.632;20.656;2023-04-30T07:24:26;9.30;;;3.60;;
75851;SDS011;64500;52.632;20.656;2023-04-30T07:26:53;11.40;;;3.90;;
75851;SDS011;64500;52.632;20.656;2023-04-30T07:29:20;10.60;;;3.50;;
75851;SDS011;64500;52.632;20.656;2023-04-30T07:31:47;8.90;;;2.80;;
75851;SDS011;64500;52.632;20.656;2023-04-30T07:34:14;8.10;;;2.70;;
75851;SDS011;64500;52.632;20.656;2023-04-30T07:36:40;7.20;;;2.90;;
75851;SDS011;64500;52.632;20.656;2023-04-30T07:39:09;9.50;;;3.10;;
75851;SDS011;64500;52.632;20.656;2023-04-30T07:41:37;7.60;;;2.40;;
75851;SDS011;64500;52.632;20.656;2023-04-30T07:44:04;8.70;;;2.20;;
75851;SDS011;64500;52.632;20.656;2023-04-30T07:46:31;8.10;;;2.70;;
75851;SDS011;64500;52.632;20.656;2023-04-30T07:48:57;9.60;;;2.90;;
75851;SDS011;64500;52.632;20.656;2023-04-30T07:51:24;8.80;;;2.80;;
75851;SDS011;64500;52.632;20.656;2023-04-30T07:53:52;8.70;;;2.70;;
75851;SDS011;64500;52.632;20.656;2023-04-30T07:56:19;8.80;;;2.50;;
75851;SDS011;64500;52.632;20.656;2023-04-30T07:58:47;8.70;;;2.40;;
75851;SDS011;64500;52.632;20.656;2023-04-30T08:01:14;9.30;;;2.40;;
75851;SDS011;64500;52.632;20.656;2023-04-30T08:03:41;8.80;;;2.50;;
75851;SDS011;64500;52.632;20.656;2023-04-30T08:06:07;11.00;;;3.00;;
75851;SDS011;64500;52.632;20.656;2023-04-30T08:08:34;9.30;;;2.70;;
75851;SDS011;64500;52.632;20.656;2023-04-30T08:11:01;10.10;;;2.90;;
75851;SDS011;64500;52.632;20.656;2023-04-30T08:13:28;8.80;;;2.50;;
75851;SDS011;64500;52.632;20.656;2023-04-30T08:15:56;9.60;;;2.30;;
75851;SDS011;64500;52.632;20.656;2023-04-30T08:18:23;9.20;;;2.40;;
75851;SDS011;64500;52.632;20.656;2023-04-30T08:20:50;7.90;;;2.00;;
75851;SDS011;64500;52.632;20.656;2023-04-30T08:23:16;6.90;;;1.90;;
75851;SDS011;64500;52.632;20.656;2023-04-30T08:25:43;6.70;;;2.20;;
75851;SDS011;64500;52.632;20.656;2023-04-30T08:28:10;8.10;;;2.30;;
75851;SDS011;64500;52.632;20.656;2023-04-30T08:30:37;7.80;;;2.00;;
75851;SDS011;64500;52.632;20.656;2023-04-30T08:33:04;7.60;;;1.80;;
75851;SDS011;64500;52.632;20.656;2023-04-30T08:35:31;6.80;;;2.40;;
75851;SDS011;64500;52.632;20.656;2023-04-30T08:37:58;8.50;;;2.30;;
75851;SDS011;64500;52.632;20.656;2023-04-30T08:40:26;4.30;;;1.30;;
75851;SDS011;64500;52.632;20.656;2023-04-30T08:42:56;7.00;;;1.90;;
75851;SDS011;64500;52.632;20.656;2023-04-30T08:45:25;6.10;;;1.90;;
75851;SDS011;64500;52.632;20.656;2023-04-30T08:47:52;7.40;;;2.60;;
75851;SDS011;64500;52.632;20.656;2023-04-30T08:50:19;6.70;;;2.20;;
75851;SDS011;64500;52.632;20.656;2023-04-30T08:52:46;6.00;;;1.80;;
75851;SDS011;64500;52.632;20.656;2023-04-30T08:55:13;5.30;;;1.70;;
75851;SDS011;64500;52.632;20.656;2023-04-30T08:57:40;7.00;;;1.60;;
75851;SDS011;64500;52.632;20.656;2023-04-30T09:00:07;5.60;;;1.50;;
75851;SDS011;64500;52.632;20.656;2023-04-30T09:02:34;4.70;;;1.30;;
75851;SDS011;64500;52.632;20.656;2023-04-30T09:05:07;6.80;;;1.50;;
75851;SDS011;64500;52.632;20.656;2023-04-30T09:07:35;8.30;;;1.80;;
75851;SDS011;64500;52.632;20.656;2023-04-30T09:10:04;5.50;;;1.60;;
75851;SDS011;64500;52.632;20.656;2023-04-30T09:12:38;4.90;;;1.40;;
75851;SDS011;64500;52.632;20.656;2023-04-30T09:15:09;7.00;;;1.70;;
75851;SDS011;64500;52.632;20.656;2023-04-30T09:17:36;5.30;;;1.30;;
75851;SDS011;64500;52.632;20.656;2023-04-30T09:22:34;6.10;;;1.80;;
75851;SDS011;64500;52.632;20.656;2023-04-30T09:25:02;9.50;;;2.20;;
75851;SDS011;64500;52.632;20.656;2023-04-30T09:27:28;5.40;;;1.80;;
75851;SDS011;64500;52.632;20.656;2023-04-30T09:29:55;7.30;;;1.60;;
75851;SDS011;64500;52.632;20.656;2023-04-30T09:32:22;6.90;;;1.80;;
75851;SDS011;64500;52.632;20.656;2023-04-30T09:34:49;7.50;;;1.80;;
75851;SDS011;64500;52.632;20.656;2023-04-30T09:37:16;7.50;;;2.10;;
75851;SDS011;64500;52.632;20.656;2023-04-30T09:39:49;9.40;;;1.80;;
75851;SDS011;64500;52.632;20.656;2023-04-30T09:42:17;7.90;;;2.00;;
75851;SDS011;64500;52.632;20.656;2023-04-30T09:44:47;8.90;;;1.60;;
75851;SDS011;64500;52.632;20.656;2023-04-30T09:47:15;5.30;;;1.70;;
75851;SDS011;64500;52.632;20.656;2023-04-30T09:49:42;8.80;;;1.90;;
75851;SDS011;64500;52.632;20.656;2023-04-30T09:52:10;6.20;;;1.80;;
75851;SDS011;64500;52.632;20.656;2023-04-30T09:54:38;6.90;;;1.80;;
75851;SDS011;64500;52.632;20.656;2023-04-30T09:57:05;7.30;;;1.90;;
75851;SDS011;64500;52.632;20.656;2023-04-30T09:59:36;6.10;;;2.00;;
75851;SDS011;64500;52.632;20.656;2023-04-30T10:02:05;4.50;;;1.40;;
75851;SDS011;64500;52.632;20.656;2023-04-30T10:04:33;6.40;;;1.60;;
75851;SDS011;64500;52.632;20.656;2023-04-30T10:07:03;6.10;;;1.50;;
75851;SDS011;64500;52.632;20.656;2023-04-30T10:12:13;5.00;;;1.80;;
75851;SDS011;64500;52.632;20.656;2023-04-30T10:14:44;8.00;;;1.50;;
75851;SDS011;64500;52.632;20.656;2023-04-30T10:17:12;5.60;;;1.50;;
75851;SDS011;64500;52.632;20.656;2023-04-30T10:19:42;5.30;;;1.40;;
75851;SDS011;64500;52.632;20.656;2023-04-30T10:22:12;5.80;;;1.50;;
75851;SDS011;64500;52.632;20.656;2023-04-30T10:24:39;6.80;;;1.80;;
75851;SDS011;64500;52.632;20.656;2023-04-30T10:27:07;5.40;;;1.60;;
75851;SDS011;64500;52.632;20.656;2023-04-30T10:29:34;7.90;;;1.60;;
75851;SDS011;64500;52.632;20.656;2023-04-30T10:32:01;5.90;;;1.40;;
75851;SDS011;64500;52.632;20.656;2023-04-30T10:34:34;5.90;;;1.70;;
75851;SDS011;64500;52.632;20.656;2023-04-30T10:37:04;5.80;;;1.30;;
75851;SDS011;64500;52.632;20.656;2023-04-30T10:39:32;6.70;;;1.50;;
75851;SDS011;64500;52.632;20.656;2023-04-30T10:42:01;6.10;;;1.50;;
75851;SDS011;64500;52.632;20.656;2023-04-30T10:44:33;7.80;;;1.70;;
75851;SDS011;64500;52.632;20.656;2023-04-30T10:47:00;6.10;;;1.60;;
75851;SDS011;64500;52.632;20.656;2023-04-30T10:49:28;7.20;;;2.00;;
75851;SDS011;64500;52.632;20.656;2023-04-30T10:51:57;6.30;;;1.60;;
75851;SDS011;64500;52.632;20.656;2023-04-30T10:54:32;5.50;;;1.50;;
75851;SDS011;64500;52.632;20.656;2023-04-30T10:57:13;5.40;;;1.40;;
75851;SDS011;64500;52.632;20.656;2023-04-30T10:59:41;4.80;;;1.40;;
75851;SDS011;64500;52.632;20.656;2023-04-30T11:02:10;5.90;;;1.70;;
75851;SDS011;64500;52.632;20.656;2023-04-30T11:07:24;6.20;;;1.70;;
75851;SDS011;64500;52.632;20.656;2023-04-30T11:09:51;4.40;;;1.30;;
75851;SDS011;64500;52.632;20.656;2023-04-30T11:12:24;7.90;;;1.50;;
75851;SDS011;64500;52.632;20.656;2023-04-30T11:15:12;5.50;;;1.70;;
75851;SDS011;64500;52.632;20.656;2023-04-30T11:17:39;5.20;;;1.50;;
75851;SDS011;64500;52.632;20.656;2023-04-30T11:20:06;6.10;;;1.80;;
75851;SDS011;64500;52.632;20.656;2023-04-30T11:22:33;5.00;;;1.60;;
75851;SDS011;64500;52.632;20.656;2023-04-30T11:27:40;5.10;;;1.60;;
75851;SDS011;64500;52.632;20.656;2023-04-30T11:32:34;6.50;;;1.50;;
75851;SDS011;64500;52.632;20.656;2023-04-30T11:35:02;4.40;;;1.20;;
75851;SDS011;64500;52.632;20.656;2023-04-30T11:37:30;6.40;;;1.40;;
75851;SDS011;64500;52.632;20.656;2023-04-30T11:39:59;3.30;;;1.10;;
75851;SDS011;64500;52.632;20.656;2023-04-30T11:42:26;3.40;;;1.20;;
75851;SDS011;64500;52.632;20.656;2023-04-30T11:45:16;5.20;;;1.20;;
75851;SDS011;64500;52.632;20.656;2023-04-30T11:47:50;6.30;;;1.50;;
75851;SDS011;64500;52.632;20.656;2023-04-30T11:50:21;3.80;;;1.10;;
75851;SDS011;64500;52.632;20.656;2023-04-30T11:52:55;4.30;;;1.50;;
75851;SDS011;64500;52.632;20.656;2023-04-30T11:55:22;6.50;;;1.50;;
75851;SDS011;64500;52.632;20.656;2023-04-30T11:57:51;5.30;;;1.60;;
75851;SDS011;64500;52.632;20.656;2023-04-30T12:00:20;6.80;;;1.90;;
75851;SDS011;64500;52.632;20.656;2023-04-30T12:02:47;5.00;;;1.50;;
75851;SDS011;64500;52.632;20.656;2023-04-30T12:05:15;4.80;;;1.50;;
75851;SDS011;64500;52.632;20.656;2023-04-30T12:10:12;5.50;;;1.30;;
75851;SDS011;64500;52.632;20.656;2023-04-30T12:12:41;6.10;;;1.30;;
75851;SDS011;64500;52.632;20.656;2023-04-30T12:15:20;6.20;;;1.30;;
75851;SDS011;64500;52.632;20.656;2023-04-30T12:17:52;8.10;;;1.80;;
75851;SDS011;64500;52.632;20.656;2023-04-30T12:20:20;5.30;;;1.40;;
75851;SDS011;64500;52.632;20.656;2023-04-30T12:22:47;4.70;;;1.10;;
75851;SDS011;64500;52.632;20.656;2023-04-30T12:25:18;5.30;;;1.30;;
75851;SDS011;64500;52.632;20.656;2023-04-30T12:27:46;5.80;;;1.60;;
75851;SDS011;64500;52.632;20.656;2023-04-30T12:30:13;3.80;;;1.20;;
75851;SDS011;64500;52.632;20.656;2023-04-30T12:32:41;4.80;;;1.30;;
75851;SDS011;64500;52.632;20.656;2023-04-30T12:35:12;4.00;;;1.20;;
75851;SDS011;64500;52.632;20.656;2023-04-30T12:37:46;3.40;;;1.10;;
75851;SDS011;64500;52.632;20.656;2023-04-30T12:40:13;5.00;;;1.30;;
75851;SDS011;64500;52.632;20.656;2023-04-30T12:42:43;4.60;;;1.20;;
75851;SDS011;64500;52.632;20.656;2023-04-30T12:45:12;5.70;;;1.50;;
75851;SDS011;64500;52.632;20.656;2023-04-30T12:47:40;4.30;;;1.30;;
75851;SDS011;64500;52.632;20.656;2023-04-30T12:50:10;5.70;;;1.10;;
75851;SDS011;64500;52.632;20.656;2023-04-30T12:52:40;4.00;;;1.10;;
75851;SDS011;64500;52.632;20.656;2023-04-30T12:55:19;5.20;;;1.30;;
75851;SDS011;64500;52.632;20.656;2023-04-30T13:03:12;3.80;;;1.20;;
75851;SDS011;64500;52.632;20.656;2023-04-30T13:05:39;6.40;;;1.40;;
75851;SDS011;64500;52.632;20.656;2023-04-30T13:08:07;4.40;;;1.40;;
75851;SDS011;64500;52.632;20.656;2023-04-30T13:10:35;5.70;;;1.10;;
75851;SDS011;64500;52.632;20.656;2023-04-30T13:13:01;4.90;;;1.30;;
75851;SDS011;64500;52.632;20.656;2023-04-30T13:15:28;3.60;;;1.20;;
75851;SDS011;64500;52.632;20.656;2023-04-30T13:17:55;5.20;;;1.20;;
75851;SDS011;64500;52.632;20.656;2023-04-30T13:20:23;4.30;;;1.30;;
75851;SDS011;64500;52.632;20.656;2023-04-30T13:22:51;4.30;;;1.30;;
75851;SDS011;64500;52.632;20.656;2023-04-30T13:25:17;6.20;;;1.30;;
75851;SDS011;64500;52.632;20.656;2023-04-30T13:27:44;7.30;;;1.40;;
75851;SDS011;64500;52.632;20.656;2023-04-30T13:30:11;4.40;;;1.30;;
75851;SDS011;64500;52.632;20.656;2023-04-30T13:32:38;5.70;;;1.20;;
75851;SDS011;64500;52.632;20.656;2023-04-30T13:35:07;5.70;;;1.30;;
75851;SDS011;64500;52.632;20.656;2023-04-30T13:37:34;4.50;;;1.30;;
75851;SDS011;64500;52.632;20.656;2023-04-30T13:40:02;6.70;;;1.80;;
75851;SDS011;64500;52.632;20.656;2023-04-30T13:42:29;4.90;;;1.30;;
75851;SDS011;64500;52.632;20.656;2023-04-30T13:44:56;3.50;;;1.20;;
75851;SDS011;64500;52.632;20.656;2023-04-30T13:47:23;8.20;;;2.20;;
75851;SDS011;64500;52.632;20.656;2023-04-30T13:49:50;5.80;;;1.40;;
75851;SDS011;64500;52.632;20.656;2023-04-30T13:52:17;6.40;;;1.50;;
75851;SDS011;64500;52.632;20.656;2023-04-30T13:54:44;4.90;;;1.50;;
75851;SDS011;64500;52.632;20.656;2023-04-30T13:57:13;5.90;;;1.30;;
75851;SDS011;64500;52.632;20.656;2023-04-30T13:59:40;4.20;;;1.40;;
75851;SDS011;64500;52.632;20.656;2023-04-30T14:02:07;5.40;;;1.60;;
75851;SDS011;64500;52.632;20.656;2023-04-30T14:04:34;5.00;;;1.50;;
75851;SDS011;64500;52.632;20.656;2023-04-30T14:07:01;4.80;;;1.30;;
75851;SDS011;64500;52.632;20.656;2023-04-30T14:09:28;4.20;;;1.30;;
75851;SDS011;64500;52.632;20.656;2023-04-30T14:11:56;4.40;;;1.30;;
75851;SDS011;64500;52.632;20.656;2023-04-30T14:14:24;4.10;;;1.30;;
75851;SDS011;64500;52.632;20.656;2023-04-30T14:16:52;5.00;;;1.20;;
75851;SDS011;64500;52.632;20.656;2023-04-30T14:19:19;6.40;;;1.70;;
75851;SDS011;64500;52.632;20.656;2023-04-30T14:21:46;7.90;;;1.70;;
75851;SDS011;64500;52.632;20.656;2023-04-30T14:24:13;7.20;;;1.60;;
75851;SDS011;64500;52.632;20.656;2023-04-30T14:26:41;5.20;;;1.10;;
75851;SDS011;64500;52.632;20.656;2023-04-30T14:29:08;6.00;;;1.50;;
75851;SDS011;64500;52.632;20.656;2023-04-30T14:31:35;5.20;;;1.40;;
75851;SDS011;64500;52.632;20.656;2023-04-30T14:34:02;5.40;;;1.50;;
75851;SDS011;64500;52.632;20.656;2023-04-30T14:36:29;7.60;;;1.80;;
75851;SDS011;64500;52.632;20.656;2023-04-30T14:38:56;6.60;;;1.70;;
75851;SDS011;64500;52.632;20.656;2023-04-30T14:41:23;5.00;;;1.40;;
75851;SDS011;64500;52.632;20.656;2023-04-30T14:43:49;5.30;;;1.50;;
75851;SDS011;64500;52.632;20.656;2023-04-30T14:46:18;5.70;;;1.60;;
75851;SDS011;64500;52.632;20.656;2023-04-30T14:48:45;7.10;;;1.80;;
75851;SDS011;64500;52.632;20.656;2023-04-30T14:51:11;6.80;;;1.50;;
75851;SDS011;64500;52.632;20.656;2023-04-30T14:53:38;5.20;;;1.40;;
75851;SDS011;64500;52.632;20.656;2023-04-30T14:56:05;4.20;;;1.10;;
75851;SDS011;64500;52.632;20.656;2023-04-30T14:58:32;6.10;;;1.40;;
75851;SDS011;64500;52.632;20.656;2023-04-30T15:00:59;4.30;;;1.20;;
75851;SDS011;64500;52.632;20.656;2023-04-30T15:03:26;4.40;;;1.20;;
75851;SDS011;64500;52.632;20.656;2023-04-30T15:05:53;3.80;;;1.30;;